createdAt,value
2017-01-26T00:00:17.910Z,24.79
2017-01-26T00:00:46.054Z,24.85
2017-01-26T00:01:14.228Z,24.86
2017-01-26T00:01:42.461Z,24.81
2017-01-26T00:02:10.660Z,24.79
2017-01-26T00:02:38.825Z,24.85
2017-01-26T00:03:07.008Z,24.78
2017-01-26T00:03:35.143Z,24.79
2017-01-26T00:04:03.302Z,24.81
2017-01-26T00:04:31.471Z,24.82
2017-01-26T00:04:59.632Z,24.84
2017-01-26T00:05:27.816Z,24.85
2017-01-26T00:05:56.087Z,24.77
2017-01-26T00:06:24.355Z,24.84
2017-01-26T00:06:52.512Z,24.84
2017-01-26T00:07:20.651Z,24.88
2017-01-26T00:07:48.811Z,24.86
2017-01-26T00:08:17.132Z,24.92
2017-01-26T00:08:45.299Z,24.92
2017-01-26T00:09:13.460Z,24.89
2017-01-26T00:09:41.618Z,24.86
2017-01-26T00:10:09.795Z,24.96
2017-01-26T00:10:37.945Z,24.88
2017-01-26T00:11:06.076Z,24.93
2017-01-26T00:11:34.249Z,24.94
2017-01-26T00:12:02.393Z,24.96
2017-01-26T00:12:30.540Z,24.93
2017-01-26T00:12:58.695Z,25.01
2017-01-26T00:13:26.850Z,24.96
2017-01-26T00:13:55.013Z,24.94
2017-01-26T00:14:23.296Z,24.94
2017-01-26T00:14:51.434Z,24.99
2017-01-26T00:15:19.594Z,24.94
2017-01-26T00:15:47.763Z,24.97
2017-01-26T00:16:15.922Z,24.96
2017-01-26T00:16:44.068Z,25
2017-01-26T00:17:12.281Z,25.01
2017-01-26T00:17:40.489Z,24.96
2017-01-26T00:18:08.657Z,24.96
2017-01-26T00:18:36.846Z,24.96
2017-01-26T00:19:05.030Z,25.03
2017-01-26T00:19:33.217Z,24.99
2017-01-26T00:20:01.366Z,24.93
2017-01-26T00:20:29.526Z,24.94
2017-01-26T00:20:57.765Z,24.84
2017-01-26T00:21:25.927Z,24.92
2017-01-26T00:21:54.085Z,25
2017-01-26T00:22:22.255Z,24.88
2017-01-26T00:22:50.410Z,24.89
2017-01-26T00:23:18.571Z,24.89
2017-01-26T00:23:46.723Z,24.96
2017-01-26T00:24:14.875Z,24.93
2017-01-26T00:24:43.022Z,24.89
2017-01-26T00:25:11.297Z,25.01
2017-01-26T00:25:39.543Z,24.94
2017-01-26T00:26:07.879Z,24.86
2017-01-26T00:26:36.057Z,25.01
2017-01-26T00:27:04.231Z,24.94
2017-01-26T00:27:32.378Z,25
2017-01-26T00:28:00.515Z,24.96
2017-01-26T00:28:28.694Z,25
2017-01-26T00:28:56.838Z,24.99
2017-01-26T00:29:24.974Z,25.03
2017-01-26T00:29:53.119Z,24.97
2017-01-26T00:30:21.379Z,24.99
2017-01-26T00:30:49.522Z,24.99
2017-01-26T00:31:17.778Z,25.01
2017-01-26T00:31:45.990Z,25.01
2017-01-26T00:32:14.308Z,25.01
2017-01-26T00:32:42.571Z,25.01
2017-01-26T00:33:10.746Z,25
2017-01-26T00:33:38.936Z,24.97
2017-01-26T00:34:07.221Z,24.99
2017-01-26T00:34:35.396Z,25.03
2017-01-26T00:35:03.607Z,24.96
2017-01-26T00:35:31.761Z,24.96
2017-01-26T00:35:59.934Z,24.97
2017-01-26T00:36:28.077Z,24.96
2017-01-26T00:36:56.241Z,25.01
2017-01-26T00:37:24.469Z,25.03
2017-01-26T00:37:52.734Z,24.89
2017-01-26T00:38:20.983Z,25
2017-01-26T00:38:49.141Z,24.99
2017-01-26T00:39:17.295Z,24.97
2017-01-26T00:39:45.440Z,24.93
2017-01-26T00:40:13.611Z,24.97
2017-01-26T00:40:41.785Z,24.93
2017-01-26T00:41:09.971Z,24.92
2017-01-26T00:41:38.119Z,24.96
2017-01-26T00:42:06.356Z,24.89
2017-01-26T00:42:34.508Z,24.99
2017-01-26T00:43:02.749Z,24.88
2017-01-26T00:43:30.904Z,24.94
2017-01-26T00:43:59.084Z,24.86
2017-01-26T00:44:27.261Z,24.88
2017-01-26T00:44:55.574Z,24.97
2017-01-26T00:45:23.743Z,24.97
2017-01-26T00:45:51.897Z,24.92
2017-01-26T00:46:20.043Z,24.93
2017-01-26T00:46:48.222Z,24.96
2017-01-26T00:47:16.374Z,24.89
2017-01-26T00:47:44.561Z,24.96
2017-01-26T00:48:12.828Z,24.88
2017-01-26T00:48:40.987Z,24.92
2017-01-26T00:49:09.232Z,24.92
2017-01-26T00:49:37.402Z,24.89
2017-01-26T00:50:05.586Z,24.92
2017-01-26T00:50:33.753Z,24.92
2017-01-26T00:51:01.920Z,24.88
2017-01-26T00:51:30.079Z,24.93
2017-01-26T00:51:58.319Z,24.88
2017-01-26T00:52:26.480Z,24.86
2017-01-26T00:52:54.762Z,24.77
2017-01-26T00:53:22.930Z,24.86
2017-01-26T00:53:51.093Z,24.88
2017-01-26T00:54:19.269Z,24.85
2017-01-26T00:54:47.420Z,24.79
2017-01-26T00:55:15.610Z,24.88
2017-01-26T00:55:43.785Z,24.81
2017-01-26T00:56:11.951Z,24.86
2017-01-26T00:56:40.114Z,24.81
2017-01-26T00:57:08.296Z,24.89
2017-01-26T00:57:36.453Z,24.89
2017-01-26T00:58:04.609Z,24.92
2017-01-26T00:58:32.792Z,24.89
2017-01-26T00:59:00.952Z,24.88
2017-01-26T00:59:29.216Z,24.84
2017-01-26T00:59:57.385Z,24.86
2017-01-26T01:00:25.677Z,24.84
2017-01-26T01:00:54.165Z,24.79
2017-01-26T01:01:22.320Z,24.84
2017-01-26T01:01:50.480Z,24.84
2017-01-26T01:02:18.632Z,24.84
2017-01-26T01:02:46.807Z,24.84
2017-01-26T01:03:14.976Z,24.78
2017-01-26T01:03:43.117Z,24.78
2017-01-26T01:04:11.254Z,24.77
2017-01-26T01:04:39.641Z,24.79
2017-01-26T01:05:07.813Z,24.77
2017-01-26T01:05:36.117Z,24.78
2017-01-26T01:06:04.370Z,24.74
2017-01-26T01:06:32.500Z,24.69
2017-01-26T01:07:00.681Z,24.81
2017-01-26T01:07:28.859Z,24.74
2017-01-26T01:07:57.039Z,24.78
2017-01-26T01:08:25.289Z,24.71
2017-01-26T01:08:53.759Z,24.74
2017-01-26T01:09:21.962Z,24.71
2017-01-26T01:09:50.200Z,24.71
2017-01-26T01:10:18.483Z,24.78
2017-01-26T01:10:47.009Z,24.77
2017-01-26T01:11:15.150Z,24.75
2017-01-26T01:11:43.354Z,24.77
2017-01-26T01:12:11.527Z,24.75
2017-01-26T01:12:39.768Z,24.75
2017-01-26T01:13:08.163Z,24.71
2017-01-26T01:13:36.348Z,24.81
2017-01-26T01:14:04.892Z,24.69
2017-01-26T01:14:33.082Z,24.75
2017-01-26T01:15:01.375Z,24.78
2017-01-26T01:15:29.517Z,24.82
2017-01-26T01:15:57.787Z,24.81
2017-01-26T01:16:25.948Z,24.79
2017-01-26T01:16:54.350Z,24.86
2017-01-26T01:17:22.889Z,24.93
2017-01-26T01:17:51.040Z,24.92
2017-01-26T01:18:19.192Z,24.92
2017-01-26T01:18:47.361Z,24.92
2017-01-26T01:19:15.551Z,24.99
2017-01-26T01:19:43.740Z,24.93
2017-01-26T01:20:11.980Z,24.93
2017-01-26T01:20:40.255Z,25
2017-01-26T01:21:08.416Z,24.96
2017-01-26T01:21:36.580Z,24.99
2017-01-26T01:22:04.771Z,25.04
2017-01-26T01:22:32.961Z,25.06
2017-01-26T01:23:01.104Z,25.12
2017-01-26T01:23:29.294Z,25.03
2017-01-26T01:23:57.452Z,25.12
2017-01-26T01:24:25.716Z,25.14
2017-01-26T01:24:53.978Z,24.99
2017-01-26T01:25:22.175Z,25.07
2017-01-26T01:25:50.340Z,25.11
2017-01-26T01:26:18.519Z,24.99
2017-01-26T01:26:46.700Z,25.06
2017-01-26T01:27:14.849Z,25.07
2017-01-26T01:27:43.142Z,25.12
2017-01-26T01:28:11.449Z,25.09
2017-01-26T01:28:39.609Z,25.12
2017-01-26T01:29:07.785Z,25.09
2017-01-26T01:29:36.009Z,25.09
2017-01-26T01:30:04.173Z,25.09
2017-01-26T01:30:32.414Z,25.03
2017-01-26T01:31:00.595Z,25.11
2017-01-26T01:31:28.750Z,25.07
2017-01-26T01:31:56.903Z,25.12
2017-01-26T01:32:25.083Z,25.06
2017-01-26T01:32:53.237Z,25.11
2017-01-26T01:33:21.410Z,25.04
2017-01-26T01:33:49.582Z,25.09
2017-01-26T01:34:17.763Z,25.01
2017-01-26T01:34:46.123Z,25.07
2017-01-26T01:35:14.342Z,25.03
2017-01-26T01:35:42.516Z,25.03
2017-01-26T01:36:10.722Z,25
2017-01-26T01:36:39.002Z,25.09
2017-01-26T01:37:07.195Z,25.04
2017-01-26T01:37:35.349Z,25.06
2017-01-26T01:38:03.517Z,25.06
2017-01-26T01:38:31.765Z,25.04
2017-01-26T01:38:59.897Z,24.99
2017-01-26T01:39:28.058Z,24.99
2017-01-26T01:39:56.215Z,24.99
2017-01-26T01:40:24.405Z,24.89
2017-01-26T01:40:52.557Z,24.89
2017-01-26T01:41:20.714Z,24.96
2017-01-26T01:41:48.894Z,24.96
2017-01-26T01:42:17.039Z,25
2017-01-26T01:42:45.225Z,24.99
2017-01-26T01:43:13.380Z,24.88
2017-01-26T01:43:41.555Z,24.89
2017-01-26T01:44:09.740Z,24.93
2017-01-26T01:44:37.911Z,24.92
2017-01-26T01:45:06.104Z,24.92
2017-01-26T01:45:34.276Z,24.89
2017-01-26T01:46:02.438Z,24.92
2017-01-26T01:46:30.672Z,24.84
2017-01-26T01:46:58.912Z,24.88
2017-01-26T01:47:27.132Z,24.89
2017-01-26T01:47:55.298Z,24.86
2017-01-26T01:48:23.460Z,24.88
2017-01-26T01:48:51.651Z,24.81
2017-01-26T01:49:19.912Z,24.81
2017-01-26T01:49:48.077Z,24.79
2017-01-26T01:50:16.351Z,24.75
2017-01-26T01:50:44.548Z,24.75
2017-01-26T01:51:12.709Z,24.77
2017-01-26T01:51:40.934Z,24.77
2017-01-26T01:52:09.081Z,24.74
2017-01-26T01:52:37.230Z,24.78
2017-01-26T01:53:05.406Z,24.77
2017-01-26T01:53:33.566Z,24.74
2017-01-26T01:54:01.740Z,24.74
2017-01-26T01:54:29.914Z,24.78
2017-01-26T01:54:58.071Z,24.81
2017-01-26T01:55:26.214Z,24.77
2017-01-26T01:55:54.459Z,24.79
2017-01-26T01:56:22.650Z,24.79
2017-01-26T01:56:50.942Z,24.79
2017-01-26T01:57:19.116Z,24.82
2017-01-26T01:57:47.371Z,24.71
2017-01-26T01:58:15.501Z,24.77
2017-01-26T01:58:43.704Z,24.78
2017-01-26T01:59:11.862Z,24.74
2017-01-26T01:59:40.008Z,24.75
2017-01-26T02:00:08.162Z,24.74
2017-01-26T02:00:36.309Z,24.78
2017-01-26T02:01:04.476Z,24.71
2017-01-26T02:01:32.654Z,24.77
2017-01-26T02:02:00.798Z,24.77
2017-01-26T02:02:29.055Z,24.74
2017-01-26T02:02:57.186Z,24.75
2017-01-26T02:03:25.328Z,24.77
2017-01-26T02:03:53.474Z,24.69
2017-01-26T02:04:21.634Z,24.69
2017-01-26T02:04:49.819Z,24.75
2017-01-26T02:05:17.987Z,24.74
2017-01-26T02:05:46.135Z,24.75
2017-01-26T02:06:14.399Z,24.71
2017-01-26T02:06:42.654Z,24.71
2017-01-26T02:07:10.797Z,24.71
2017-01-26T02:07:38.990Z,24.71
2017-01-26T02:08:07.177Z,24.68
2017-01-26T02:08:35.333Z,24.69
2017-01-26T02:09:03.500Z,24.65
2017-01-26T02:09:31.658Z,24.68
2017-01-26T02:09:59.795Z,24.66
2017-01-26T02:10:27.956Z,24.65
2017-01-26T02:10:56.123Z,24.61
2017-01-26T02:11:24.272Z,24.59
2017-01-26T02:11:52.417Z,24.59
2017-01-26T02:12:20.583Z,24.58
2017-01-26T02:12:48.726Z,24.58
2017-01-26T02:13:16.871Z,24.53
2017-01-26T02:13:45.035Z,24.56
2017-01-26T02:14:13.202Z,24.48
2017-01-26T02:14:41.383Z,24.47
2017-01-26T02:15:09.514Z,24.62
2017-01-26T02:15:37.914Z,24.48
2017-01-26T02:16:06.088Z,24.55
2017-01-26T02:16:34.471Z,24.55
2017-01-26T02:17:02.609Z,24.44
2017-01-26T02:17:30.924Z,24.53
2017-01-26T02:17:59.095Z,24.58
2017-01-26T02:18:27.260Z,24.5
2017-01-26T02:18:55.388Z,24.5
2017-01-26T02:19:23.537Z,24.51
2017-01-26T02:19:51.683Z,24.56
2017-01-26T02:20:19.829Z,24.56
2017-01-26T02:20:47.982Z,24.53
2017-01-26T02:21:16.142Z,24.59
2017-01-26T02:21:44.272Z,24.65
2017-01-26T02:22:12.438Z,24.62
2017-01-26T02:22:40.620Z,24.61
2017-01-26T02:23:08.798Z,24.63
2017-01-26T02:23:36.975Z,24.59
2017-01-26T02:24:05.104Z,24.61
2017-01-26T02:24:33.263Z,24.65
2017-01-26T02:25:01.432Z,24.71
2017-01-26T02:25:29.590Z,24.69
2017-01-26T02:25:57.829Z,24.68
2017-01-26T02:26:25.982Z,24.66
2017-01-26T02:26:54.149Z,24.66
2017-01-26T02:27:22.304Z,24.63
2017-01-26T02:27:50.467Z,24.69
2017-01-26T02:28:18.617Z,24.61
2017-01-26T02:28:46.816Z,24.63
2017-01-26T02:29:14.985Z,24.59
2017-01-26T02:29:43.173Z,24.61
2017-01-26T02:30:11.317Z,24.58
2017-01-26T02:30:39.496Z,24.62
2017-01-26T02:31:07.652Z,24.61
2017-01-26T02:31:35.823Z,24.59
2017-01-26T02:32:04.055Z,24.65
2017-01-26T02:32:32.204Z,24.56
2017-01-26T02:33:00.389Z,24.53
2017-01-26T02:33:28.569Z,24.55
2017-01-26T02:33:56.748Z,24.62
2017-01-26T02:34:24.912Z,24.51
2017-01-26T02:34:53.102Z,24.55
2017-01-26T02:35:21.262Z,24.55
2017-01-26T02:35:49.437Z,24.5
2017-01-26T02:36:17.615Z,24.5
2017-01-26T02:36:45.991Z,24.55
2017-01-26T02:37:14.181Z,24.43
2017-01-26T02:37:42.356Z,24.5
2017-01-26T02:38:10.505Z,24.41
2017-01-26T02:38:38.669Z,24.43
2017-01-26T02:39:06.809Z,24.4
2017-01-26T02:39:34.955Z,24.46
2017-01-26T02:40:03.121Z,24.44
2017-01-26T02:40:31.463Z,24.43
2017-01-26T02:40:59.627Z,24.36
2017-01-26T02:41:27.865Z,24.38
2017-01-26T02:41:56.056Z,24.31
2017-01-26T02:42:24.224Z,24.36
2017-01-26T02:42:52.401Z,24.31
2017-01-26T02:43:20.537Z,24.34
2017-01-26T02:43:48.685Z,24.28
2017-01-26T02:44:16.828Z,24.34
2017-01-26T02:44:44.985Z,24.34
2017-01-26T02:45:13.151Z,24.37
2017-01-26T02:45:41.310Z,24.4
2017-01-26T02:46:09.455Z,24.34
2017-01-26T02:46:37.621Z,24.32
2017-01-26T02:47:05.759Z,24.41
2017-01-26T02:47:33.918Z,24.44
2017-01-26T02:48:02.119Z,24.32
2017-01-26T02:48:30.300Z,24.41
2017-01-26T02:48:58.439Z,24.29
2017-01-26T02:49:26.628Z,24.41
2017-01-26T02:49:54.802Z,24.43
2017-01-26T02:50:22.973Z,24.38
2017-01-26T02:50:51.223Z,24.36
2017-01-26T02:51:19.387Z,24.4
2017-01-26T02:51:47.537Z,24.38
2017-01-26T02:52:15.725Z,24.37
2017-01-26T02:52:43.902Z,24.44
2017-01-26T02:53:12.182Z,24.32
2017-01-26T02:53:40.348Z,24.31
2017-01-26T02:54:08.570Z,24.37
2017-01-26T02:54:36.740Z,24.37
2017-01-26T02:55:06.167Z,24.31
2017-01-26T02:55:34.372Z,24.41
2017-01-26T02:56:02.620Z,24.37
2017-01-26T02:56:30.879Z,24.36
2017-01-26T02:56:59.068Z,24.41
2017-01-26T02:57:27.226Z,24.31
2017-01-26T02:57:55.396Z,24.32
2017-01-26T02:58:23.551Z,24.41
2017-01-26T02:58:51.721Z,24.28
2017-01-26T02:59:19.871Z,24.32
2017-01-26T02:59:48.008Z,24.37
2017-01-26T03:00:16.169Z,24.36
2017-01-26T03:00:44.320Z,24.34
2017-01-26T03:01:12.570Z,24.29
2017-01-26T03:01:40.721Z,24.29
2017-01-26T03:02:08.849Z,24.29
2017-01-26T03:02:37.033Z,24.26
2017-01-26T03:03:05.194Z,24.24
2017-01-26T03:03:33.459Z,24.28
2017-01-26T03:04:01.747Z,24.25
2017-01-26T03:04:30.017Z,24.26
2017-01-26T03:04:58.166Z,24.21
2017-01-26T03:05:26.342Z,24.21
2017-01-26T03:05:54.700Z,24.24
2017-01-26T03:06:22.854Z,24.19
2017-01-26T03:06:51.003Z,24.19
2017-01-26T03:07:19.223Z,24.14
2017-01-26T03:07:47.475Z,24.26
2017-01-26T03:08:15.643Z,24.19
2017-01-26T03:08:43.821Z,24.18
2017-01-26T03:09:11.979Z,24.13
2017-01-26T03:09:40.165Z,24.24
2017-01-26T03:10:08.426Z,24.13
2017-01-26T03:10:36.677Z,24.19
2017-01-26T03:11:04.816Z,24.21
2017-01-26T03:11:32.998Z,24.04
2017-01-26T03:12:01.303Z,24.18
2017-01-26T03:12:29.463Z,24.11
2017-01-26T03:12:57.669Z,24.18
2017-01-26T03:13:25.823Z,24.16
2017-01-26T03:13:54.055Z,24.11
2017-01-26T03:14:22.208Z,24.13
2017-01-26T03:14:50.381Z,24.18
2017-01-26T03:15:18.660Z,24.21
2017-01-26T03:15:46.813Z,24.18
2017-01-26T03:16:15.067Z,24.14
2017-01-26T03:16:43.239Z,24.16
2017-01-26T03:17:11.388Z,24.19
2017-01-26T03:17:39.588Z,24.18
2017-01-26T03:18:07.829Z,24.22
2017-01-26T03:18:36.480Z,24.07
2017-01-26T03:19:09.735Z,24.1
2017-01-26T03:19:38.404Z,24.14
2017-01-26T03:20:06.666Z,24.01
2017-01-26T03:20:34.870Z,24.09
2017-01-26T03:21:03.057Z,24.07
2017-01-26T03:21:31.213Z,24.1
2017-01-26T03:21:59.361Z,24.1
2017-01-26T03:22:27.535Z,24.09
2017-01-26T03:22:55.664Z,24.14
2017-01-26T03:23:23.802Z,24.11
2017-01-26T03:23:51.943Z,24.04
2017-01-26T03:24:20.307Z,24.06
2017-01-26T03:24:48.484Z,24.16
2017-01-26T03:25:16.778Z,24.22
2017-01-26T03:25:44.930Z,24.16
2017-01-26T03:26:13.119Z,24.16
2017-01-26T03:26:41.269Z,24.24
2017-01-26T03:27:09.402Z,24.25
2017-01-26T03:27:37.668Z,24.24
2017-01-26T03:28:05.854Z,24.28
2017-01-26T03:28:34.043Z,24.26
2017-01-26T03:29:02.196Z,24.25
2017-01-26T03:29:30.382Z,24.31
2017-01-26T03:29:58.559Z,24.31
2017-01-26T03:30:26.732Z,24.34
2017-01-26T03:30:54.977Z,24.38
2017-01-26T03:31:23.142Z,24.29
2017-01-26T03:31:51.309Z,24.37
2017-01-26T03:32:19.497Z,24.34
2017-01-26T03:32:47.653Z,24.41
2017-01-26T03:33:15.816Z,24.34
2017-01-26T03:33:43.987Z,24.36
2017-01-26T03:34:12.176Z,24.38
2017-01-26T03:34:40.381Z,24.44
2017-01-26T03:35:08.560Z,24.41
2017-01-26T03:35:36.735Z,24.41
2017-01-26T03:36:04.927Z,24.47
2017-01-26T03:36:33.090Z,24.44
2017-01-26T03:37:01.297Z,24.43
2017-01-26T03:37:29.457Z,24.48
2017-01-26T03:37:57.640Z,24.43
2017-01-26T03:38:25.807Z,24.48
2017-01-26T03:38:54.065Z,24.41
2017-01-26T03:39:22.219Z,24.43
2017-01-26T03:39:50.378Z,24.4
2017-01-26T03:40:18.523Z,24.43
2017-01-26T03:40:46.700Z,24.43
2017-01-26T03:41:14.839Z,24.43
2017-01-26T03:41:43.006Z,24.41
2017-01-26T03:42:11.157Z,24.43
2017-01-26T03:42:39.313Z,24.44
2017-01-26T03:43:07.492Z,24.43
2017-01-26T03:43:35.659Z,24.47
2017-01-26T03:44:03.893Z,24.41
2017-01-26T03:44:32.150Z,24.4
2017-01-26T03:45:00.305Z,24.44
2017-01-26T03:45:28.465Z,24.43
2017-01-26T03:45:56.653Z,24.46
2017-01-26T03:46:24.827Z,24.55
2017-01-26T03:46:52.971Z,24.43
2017-01-26T03:47:21.308Z,24.51
2017-01-26T03:47:49.440Z,24.53
2017-01-26T03:48:17.592Z,24.51
2017-01-26T03:48:45.779Z,24.51
2017-01-26T03:49:13.955Z,24.43
2017-01-26T03:49:42.092Z,24.5
2017-01-26T03:50:10.283Z,24.44
2017-01-26T03:50:38.761Z,24.43
2017-01-26T03:51:07.020Z,24.46
2017-01-26T03:51:35.154Z,24.38
2017-01-26T03:52:03.336Z,24.48
2017-01-26T03:52:31.576Z,24.37
2017-01-26T03:52:59.705Z,24.4
2017-01-26T03:53:27.885Z,24.37
2017-01-26T03:53:56.046Z,24.36
2017-01-26T03:54:24.305Z,24.29
2017-01-26T03:54:52.647Z,24.31
2017-01-26T03:55:20.844Z,24.29
2017-01-26T03:55:49.060Z,24.29
2017-01-26T03:56:17.209Z,24.29
2017-01-26T03:56:45.368Z,24.28
2017-01-26T03:57:13.529Z,24.28
2017-01-26T03:57:41.770Z,24.24
2017-01-26T03:58:09.913Z,24.22
2017-01-26T03:58:38.097Z,24.24
2017-01-26T03:59:06.255Z,24.18
2017-01-26T03:59:34.389Z,24.21
2017-01-26T04:00:02.609Z,24.24
2017-01-26T04:00:30.782Z,24.22
2017-01-26T04:00:58.922Z,24.22
2017-01-26T04:01:27.064Z,24.26
2017-01-26T04:01:55.290Z,24.18
2017-01-26T04:02:23.466Z,24.18
2017-01-26T04:02:51.620Z,24.24
2017-01-26T04:03:19.781Z,24.21
2017-01-26T04:03:47.943Z,24.28
2017-01-26T04:04:16.095Z,24.24
2017-01-26T04:04:44.234Z,24.25
2017-01-26T04:05:12.375Z,24.28
2017-01-26T04:05:40.582Z,24.34
2017-01-26T04:06:08.781Z,24.28
2017-01-26T04:06:37.019Z,24.29
2017-01-26T04:07:05.300Z,24.28
2017-01-26T04:07:33.441Z,24.26
2017-01-26T04:08:01.614Z,24.29
2017-01-26T04:08:29.790Z,24.25
2017-01-26T04:08:57.935Z,24.25
2017-01-26T04:09:26.158Z,24.26
2017-01-26T04:09:54.285Z,24.32
2017-01-26T04:10:22.509Z,24.25
2017-01-26T04:10:50.679Z,24.22
2017-01-26T04:11:19.035Z,24.24
2017-01-26T04:11:47.216Z,24.22
2017-01-26T04:12:15.372Z,24.13
2017-01-26T04:12:43.530Z,24.21
2017-01-26T04:13:11.679Z,24.21
2017-01-26T04:13:39.822Z,24.19
2017-01-26T04:14:07.981Z,24.24
2017-01-26T04:14:36.132Z,24.22
2017-01-26T04:15:04.298Z,24.13
2017-01-26T04:15:32.456Z,24.16
2017-01-26T04:16:00.647Z,24.14
2017-01-26T04:16:28.785Z,24.22
2017-01-26T04:16:56.937Z,24.19
2017-01-26T04:17:25.099Z,24.16
2017-01-26T04:17:53.263Z,24.1
2017-01-26T04:18:21.391Z,24.07
2017-01-26T04:18:54.394Z,24.06
2017-01-26T04:19:22.580Z,24.07
2017-01-26T04:19:50.762Z,24.09
2017-01-26T04:20:18.905Z,24.09
2017-01-26T04:20:47.065Z,24
2017-01-26T04:21:15.222Z,24.06
2017-01-26T04:21:43.379Z,24.07
2017-01-26T04:22:11.558Z,24.04
2017-01-26T04:22:39.688Z,23.99
2017-01-26T04:23:08.124Z,24
2017-01-26T04:23:36.259Z,23.96
2017-01-26T04:24:04.452Z,23.95
2017-01-26T04:24:32.658Z,23.94
2017-01-26T04:25:00.817Z,23.99
2017-01-26T04:25:29.048Z,23.96
2017-01-26T04:25:57.221Z,23.94
2017-01-26T04:26:25.374Z,23.91
2017-01-26T04:26:53.681Z,23.94
2017-01-26T04:27:21.828Z,23.99
2017-01-26T04:27:49.992Z,24.01
2017-01-26T04:28:18.124Z,23.89
2017-01-26T04:28:46.314Z,23.94
2017-01-26T04:29:14.473Z,23.91
2017-01-26T04:29:42.623Z,23.96
2017-01-26T04:30:10.813Z,23.89
2017-01-26T04:30:38.984Z,23.91
2017-01-26T04:31:07.142Z,23.95
2017-01-26T04:31:35.302Z,23.94
2017-01-26T04:32:03.465Z,23.88
2017-01-26T04:32:31.608Z,23.86
2017-01-26T04:32:59.772Z,23.85
2017-01-26T04:33:28.888Z,23.85
2017-01-26T04:33:57.030Z,23.86
2017-01-26T04:34:25.217Z,23.85
2017-01-26T04:34:53.396Z,23.82
2017-01-26T04:35:21.561Z,23.81
2017-01-26T04:35:49.740Z,23.86
2017-01-26T04:36:18.015Z,23.88
2017-01-26T04:36:46.174Z,23.86
2017-01-26T04:37:14.348Z,23.88
2017-01-26T04:37:42.529Z,23.88
2017-01-26T04:38:10.686Z,23.82
2017-01-26T04:38:38.837Z,23.85
2017-01-26T04:39:06.973Z,23.84
2017-01-26T04:39:35.137Z,23.88
2017-01-26T04:40:03.276Z,23.84
2017-01-26T04:40:31.440Z,23.86
2017-01-26T04:40:59.626Z,23.89
2017-01-26T04:41:27.797Z,23.91
2017-01-26T04:41:55.982Z,23.85
2017-01-26T04:42:25.303Z,23.91
2017-01-26T04:42:53.480Z,23.86
2017-01-26T04:43:21.858Z,23.89
2017-01-26T04:43:50.027Z,23.91
2017-01-26T04:44:19.986Z,23.89
2017-01-26T04:44:48.393Z,23.96
2017-01-26T04:45:16.565Z,23.95
2017-01-26T04:45:44.707Z,23.92
2017-01-26T04:46:12.883Z,23.99
2017-01-26T04:46:41.049Z,23.89
2017-01-26T04:47:09.233Z,23.99
2017-01-26T04:47:37.415Z,23.95
2017-01-26T04:48:05.578Z,23.99
2017-01-26T04:48:33.765Z,23.91
2017-01-26T04:49:01.992Z,23.92
2017-01-26T04:49:30.167Z,23.99
2017-01-26T04:49:58.305Z,24
2017-01-26T04:50:26.458Z,23.92
2017-01-26T04:50:54.704Z,23.99
2017-01-26T04:51:22.838Z,23.95
2017-01-26T04:51:50.995Z,23.89
2017-01-26T04:52:19.140Z,23.89
2017-01-26T04:52:47.286Z,23.89
2017-01-26T04:53:15.421Z,23.99
2017-01-26T04:53:43.571Z,23.89
2017-01-26T04:54:11.730Z,23.94
2017-01-26T04:54:39.902Z,24
2017-01-26T04:55:08.160Z,24.04
2017-01-26T04:55:36.331Z,23.96
2017-01-26T04:56:04.475Z,24
2017-01-26T04:56:32.624Z,23.91
2017-01-26T04:57:00.811Z,23.96
2017-01-26T04:57:29.060Z,23.95
2017-01-26T04:57:57.223Z,23.89
2017-01-26T04:58:25.402Z,23.96
2017-01-26T04:58:53.566Z,23.95
2017-01-26T04:59:21.851Z,23.89
2017-01-26T04:59:50.035Z,23.92
2017-01-26T05:00:18.286Z,23.92
2017-01-26T05:00:46.472Z,23.91
2017-01-26T05:01:14.665Z,23.95
2017-01-26T05:01:42.802Z,23.92
2017-01-26T05:02:11.073Z,23.92
2017-01-26T05:02:40.651Z,23.92
2017-01-26T05:03:09.121Z,23.89
2017-01-26T05:03:37.282Z,23.92
2017-01-26T05:04:05.445Z,23.92
2017-01-26T05:04:33.653Z,23.89
2017-01-26T05:05:01.840Z,23.89
2017-01-26T05:05:30.121Z,23.85
2017-01-26T05:05:58.331Z,23.79
2017-01-26T05:06:26.531Z,23.89
2017-01-26T05:06:54.756Z,23.81
2017-01-26T05:07:22.922Z,23.82
2017-01-26T05:07:51.086Z,23.84
2017-01-26T05:08:19.256Z,23.85
2017-01-26T05:08:47.417Z,23.81
2017-01-26T05:09:15.596Z,23.81
2017-01-26T05:09:43.811Z,23.88
2017-01-26T05:10:11.980Z,23.85
2017-01-26T05:10:40.157Z,23.81
2017-01-26T05:11:08.313Z,23.88
2017-01-26T05:11:36.509Z,23.85
2017-01-26T05:12:04.792Z,23.84
2017-01-26T05:12:32.997Z,23.82
2017-01-26T05:13:01.380Z,23.85
2017-01-26T05:13:29.584Z,23.86
2017-01-26T05:13:57.885Z,23.81
2017-01-26T05:14:26.041Z,23.77
2017-01-26T05:14:54.238Z,23.86
2017-01-26T05:15:22.405Z,23.81
2017-01-26T05:15:50.674Z,23.82
2017-01-26T05:16:18.882Z,23.73
2017-01-26T05:16:47.049Z,23.84
2017-01-26T05:17:15.248Z,23.73
2017-01-26T05:17:43.439Z,23.82
2017-01-26T05:18:11.760Z,23.74
2017-01-26T05:18:39.936Z,23.85
2017-01-26T05:19:08.077Z,23.69
2017-01-26T05:19:36.302Z,23.71
2017-01-26T05:20:04.457Z,23.73
2017-01-26T05:20:32.615Z,23.76
2017-01-26T05:21:00.872Z,23.7
2017-01-26T05:21:29.028Z,23.79
2017-01-26T05:21:57.220Z,23.76
2017-01-26T05:22:25.399Z,23.73
2017-01-26T05:22:53.588Z,23.76
2017-01-26T05:23:21.857Z,23.73
2017-01-26T05:23:50.069Z,23.74
2017-01-26T05:24:18.291Z,23.73
2017-01-26T05:24:46.572Z,23.69
2017-01-26T05:25:14.772Z,23.73
2017-01-26T05:25:42.942Z,23.7
2017-01-26T05:26:11.107Z,23.66
2017-01-26T05:26:39.277Z,23.69
2017-01-26T05:27:07.453Z,23.64
2017-01-26T05:27:35.602Z,23.69
2017-01-26T05:28:03.784Z,23.71
2017-01-26T05:28:31.959Z,23.64
2017-01-26T05:29:00.126Z,23.63
2017-01-26T05:29:28.283Z,23.62
2017-01-26T05:29:56.458Z,23.63
2017-01-26T05:30:24.639Z,23.55
2017-01-26T05:30:52.860Z,23.56
2017-01-26T05:31:21.058Z,23.55
2017-01-26T05:31:49.311Z,23.54
2017-01-26T05:32:17.467Z,23.59
2017-01-26T05:32:45.624Z,23.45
2017-01-26T05:33:13.846Z,23.39
2017-01-26T05:33:42.055Z,23.33
2017-01-26T05:34:10.256Z,23.4
2017-01-26T05:34:38.417Z,23.39
2017-01-26T05:35:06.597Z,23.28
2017-01-26T05:35:34.732Z,23.25
2017-01-26T05:36:02.890Z,23.23
2017-01-26T05:36:31.088Z,23.28
2017-01-26T05:36:59.268Z,23.2
2017-01-26T05:37:27.458Z,23.23
2017-01-26T05:37:55.629Z,23.18
2017-01-26T05:38:23.810Z,23.28
2017-01-26T05:38:51.987Z,23.21
2017-01-26T05:39:20.181Z,23.25
2017-01-26T05:39:48.365Z,23.21
2017-01-26T05:40:16.725Z,23.23
2017-01-26T05:40:44.922Z,23.21
2017-01-26T05:41:13.200Z,23.25
2017-01-26T05:41:41.340Z,23.25
2017-01-26T05:42:09.537Z,23.13
2017-01-26T05:42:37.781Z,23.26
2017-01-26T05:43:05.936Z,23.25
2017-01-26T05:43:34.218Z,23.2
2017-01-26T05:44:02.473Z,23.17
2017-01-26T05:44:30.625Z,23.17
2017-01-26T05:44:58.805Z,23.13
2017-01-26T05:45:26.960Z,23.14
2017-01-26T05:45:55.129Z,23.23
2017-01-26T05:46:23.304Z,23.13
2017-01-26T05:46:51.454Z,23.07
2017-01-26T05:47:19.626Z,23.02
2017-01-26T05:47:47.878Z,23.13
2017-01-26T05:48:16.045Z,23.11
2017-01-26T05:48:44.236Z,23.17
2017-01-26T05:49:12.445Z,22.99
2017-01-26T05:49:40.735Z,23.16
2017-01-26T05:50:08.924Z,23.2
2017-01-26T05:50:37.091Z,23.17
2017-01-26T05:51:05.342Z,23.17
2017-01-26T05:51:33.503Z,23.25
2017-01-26T05:52:01.679Z,23.17
2017-01-26T05:52:29.948Z,23.23
2017-01-26T05:52:58.149Z,23.18
2017-01-26T05:53:26.325Z,23.16
2017-01-26T05:53:54.528Z,23.25
2017-01-26T05:54:22.715Z,23.26
2017-01-26T05:54:50.883Z,23.23
2017-01-26T05:55:19.049Z,23.21
2017-01-26T05:55:47.236Z,23.13
2017-01-26T05:56:15.444Z,23.18
2017-01-26T05:56:43.617Z,23.17
2017-01-26T05:57:11.819Z,23.25
2017-01-26T05:57:40.023Z,23.13
2017-01-26T05:58:08.296Z,23.21
2017-01-26T05:58:36.480Z,23.25
2017-01-26T05:59:04.761Z,23.21
2017-01-26T05:59:32.924Z,23.2
2017-01-26T06:00:01.153Z,23.21
2017-01-26T06:00:29.297Z,23.25
2017-01-26T06:00:57.481Z,23.18
2017-01-26T06:01:25.659Z,23.18
2017-01-26T06:01:53.848Z,23.2
2017-01-26T06:02:22.101Z,23.17
2017-01-26T06:02:50.285Z,23.13
2017-01-26T06:03:18.452Z,23.13
2017-01-26T06:03:46.646Z,23.13
2017-01-26T06:04:14.846Z,23.13